Time;durP1;ratioP1;P1;durP2;ratioP2;P2;SDS_P1;SDS_P2;PMS_P1;PMS_P2;Temp;Humidity;BMP_temperature;BMP_pressure;BME280_temperature;BME280_humidity;BME280_pressure;Samples;Min_cycle;Max_cycle;Signal;HPM_P1;HPM_P2
2021/09/08 00:02:03;;;;;;;15.60;6.25;;;;;;;;;;143732;656;48018;-89
2021/09/08 00:04:30;;;;;;;13.23;6.10;;;;;;;;;;143736;660;46013;-89
2021/09/08 00:06:57;;;;;;;10.40;5.97;;;;;;;;;;143732;579;47021;-91
2021/09/08 00:09:25;;;;;;;9.40;4.47;;;;;;;;;;143733;681;46012;-88
2021/09/08 00:11:52;;;;;;;8.75;3.87;;;;;;;;;;143734;588;46018;-89
2021/09/08 00:14:20;;;;;;;13.60;4.47;;;;;;;;;;143736;574;46012;-88
2021/09/08 00:16:48;;;;;;;13.98;4.32;;;;;;;;;;143732;585;46020;-89
2021/09/08 00:19:15;;;;;;;10.35;4.82;;;;;;;;;;143733;578;46012;-86
2021/09/08 00:21:42;;;;;;;9.90;3.92;;;;;;;;;;143735;621;46018;-86
2021/09/08 00:24:08;;;;;;;28.08;4.25;;;;;;;;;;143737;601;46022;-88
2021/09/08 00:26:35;;;;;;;5.65;3.05;;;;;;;;;;143733;575;46020;-89
2021/09/08 00:29:04;;;;;;;9.43;3.33;;;;;;;;;;143731;595;46013;-89
2021/09/08 00:31:31;;;;;;;6.62;2.75;;;;;;;;;;143735;581;46018;-91
2021/09/08 00:33:58;;;;;;;7.47;2.60;;;;;;;;;;143736;611;46012;-88
2021/09/08 00:36:25;;;;;;;10.57;2.97;;;;;;;;;;143735;686;46021;-89
2021/09/08 00:38:52;;;;;;;8.60;3.53;;;;;;;;;;143731;577;46012;-89
2021/09/08 00:41:19;;;;;;;9.07;2.55;;;;;;;;;;143736;591;46018;-89
2021/09/08 00:43:46;;;;;;;8.20;2.53;;;;;;;;;;143736;575;46020;-90
2021/09/08 00:46:16;;;;;;;10.40;2.55;;;;;;;;;;143732;570;46020;-89
2021/09/08 00:48:44;;;;;;;7.80;2.55;;;;;;;;;;143732;585;46012;-89
2021/09/08 00:51:11;;;;;;;4.97;2.10;;;;;;;;;;143735;649;46019;-89
2021/09/08 00:53:40;;;;;;;13.15;2.58;;;;;;;;;;143734;659;46012;-89
2021/09/08 00:56:10;;;;;;;9.60;2.97;;;;;;;;;;143733;666;46020;-90
2021/09/08 00:58:37;;;;;;;5.45;2.72;;;;;;;;;;143732;564;46920;-90
2021/09/08 01:01:04;;;;;;;9.27;2.42;;;;;;;;;;143733;569;46018;-89
2021/09/08 01:03:31;;;;;;;8.15;3.45;;;;;;;;;;143734;600;46012;-88
2021/09/08 01:05:58;;;;;;;8.38;2.92;;;;;;;;;;143733;638;46021;-91
2021/09/08 01:08:25;;;;;;;6.32;2.50;;;;;;;;;;143731;590;46920;-89
2021/09/08 01:10:52;;;;;;;8.25;2.70;;;;;;;;;;143732;623;46018;-89
2021/09/08 01:13:22;;;;;;;8.65;3.17;;;;;;;;;;143735;598;46020;-88
2021/09/08 01:16:01;;;;;;;8.27;2.90;;;;;;;;;;143733;571;46021;-88
2021/09/08 01:18:29;;;;;;;6.45;1.98;;;;;;;;;;143731;563;46012;-90
2021/09/08 01:20:56;;;;;;;9.85;2.35;;;;;;;;;;143733;682;46019;-88
2021/09/08 01:23:23;;;;;;;7.75;2.15;;;;;;;;;;143735;599;46012;-91
2021/09/08 01:25:50;;;;;;;10.80;1.95;;;;;;;;;;143733;670;46020;-88
2021/09/08 01:28:17;;;;;;;8.52;2.97;;;;;;;;;;143732;565;46013;-89
2021/09/08 01:30:44;;;;;;;8.00;2.70;;;;;;;;;;143735;588;46018;-88
2021/09/08 01:33:12;;;;;;;6.95;2.92;;;;;;;;;;143733;579;46012;-90
2021/09/08 01:35:43;;;;;;;8.20;2.22;;;;;;;;;;143732;692;46019;-87
2021/09/08 01:38:10;;;;;;;5.05;2.37;;;;;;;;;;143732;599;46012;-88
2021/09/08 01:40:37;;;;;;;9.23;3.03;;;;;;;;;;143734;564;46018;-89
2021/09/08 01:43:06;;;;;;;7.53;2.62;;;;;;;;;;143735;564;46013;-88
2021/09/08 01:45:33;;;;;;;6.70;2.40;;;;;;;;;;143734;569;46020;-89
2021/09/08 01:48:00;;;;;;;8.60;2.65;;;;;;;;;;143733;611;46012;-86
2021/09/08 01:50:27;;;;;;;5.55;3.45;;;;;;;;;;143734;574;46019;-91
2021/09/08 01:52:54;;;;;;;4.40;2.30;;;;;;;;;;143735;594;46012;-88
2021/09/08 01:55:21;;;;;;;5.78;2.40;;;;;;;;;;143732;659;47009;-88
2021/09/08 01:57:48;;;;;;;11.05;2.78;;;;;;;;;;143730;590;46023;-89
2021/09/08 02:00:16;;;;;;;5.20;2.20;;;;;;;;;;143730;578;46018;-88
2021/09/08 02:02:45;;;;;;;6.75;2.70;;;;;;;;;;143737;581;46012;-88
2021/09/08 02:05:14;;;;;;;7.05;3.00;;;;;;;;;;143733;600;46015;-87
2021/09/08 02:07:43;;;;;;;6.18;2.28;;;;;;;;;;143734;588;46012;-88
2021/09/08 02:10:11;;;;;;;10.00;2.12;;;;;;;;;;143733;676;46027;-89
2021/09/08 02:12:38;;;;;;;13.50;2.60;;;;;;;;;;143734;594;46013;-88
2021/09/08 02:15:06;;;;;;;6.28;2.33;;;;;;;;;;143736;587;45046;-89
2021/09/08 02:17:33;;;;;;;6.20;2.65;;;;;;;;;;143731;669;46012;-88
2021/09/08 02:20:02;;;;;;;9.93;2.53;;;;;;;;;;143735;566;46019;-87
2021/09/08 02:22:29;;;;;;;11.00;2.67;;;;;;;;;;143735;584;46012;-89
2021/09/08 02:24:57;;;;;;;6.45;2.33;;;;;;;;;;143733;610;46020;-88
2021/09/08 02:27:27;;;;;;;11.10;2.08;;;;;;;;;;143732;593;46023;-92
2021/09/08 02:29:59;;;;;;;8.32;2.50;;;;;;;;;;143735;583;46018;-91
2021/09/08 02:32:31;;;;;;;6.25;2.15;;;;;;;;;;143736;639;46012;-87
2021/09/08 02:34:58;;;;;;;6.62;2.10;;;;;;;;;;143731;566;46020;-88
2021/09/08 02:37:25;;;;;;;8.80;2.80;;;;;;;;;;143734;619;46012;-89
2021/09/08 02:39:52;;;;;;;11.70;2.50;;;;;;;;;;143734;609;46018;-88
2021/09/08 02:42:22;;;;;;;9.18;2.53;;;;;;;;;;143736;570;46013;-88
2021/09/08 02:44:50;;;;;;;7.22;2.75;;;;;;;;;;143732;564;46020;-88
2021/09/08 02:47:19;;;;;;;7.15;2.85;;;;;;;;;;143734;565;46012;-88
2021/09/08 02:49:46;;;;;;;5.45;2.25;;;;;;;;;;143735;606;46019;-90
2021/09/08 02:52:14;;;;;;;11.45;2.50;;;;;;;;;;143740;659;45048;-88
2021/09/08 02:54:41;;;;;;;10.30;2.65;;;;;;;;;;143737;590;46018;-94
2021/09/08 02:57:08;;;;;;;13.25;3.70;;;;;;;;;;143735;629;46013;-89
2021/09/08 02:59:35;;;;;;;6.68;2.22;;;;;;;;;;143735;583;46020;-87
2021/09/08 03:02:02;;;;;;;7.80;2.25;;;;;;;;;;143738;593;46039;-90
2021/09/08 03:04:29;;;;;;;7.43;2.90;;;;;;;;;;143735;583;46020;-87
2021/09/08 03:06:58;;;;;;;12.65;2.45;;;;;;;;;;143736;574;45921;-90
2021/09/08 03:09:25;;;;;;;11.02;2.17;;;;;;;;;;143732;570;46018;-88
2021/09/08 03:11:52;;;;;;;10.70;2.35;;;;;;;;;;143736;580;46015;-87
2021/09/08 03:14:19;;;;;;;11.30;2.60;;;;;;;;;;143734;599;46021;-88
2021/09/08 03:16:46;;;;;;;7.78;2.28;;;;;;;;;;143734;630;46012;-90
2021/09/08 03:19:13;;;;;;;12.73;4.47;;;;;;;;;;143735;591;46019;-89
2021/09/08 03:21:40;;;;;;;10.52;1.95;;;;;;;;;;143736;620;47012;-90
2021/09/08 03:24:07;;;;;;;4.30;1.62;;;;;;;;;;143732;657;47020;-89
2021/09/08 03:26:34;;;;;;;9.85;2.62;;;;;;;;;;143733;655;46012;-89
2021/09/08 03:29:01;;;;;;;10.35;2.45;;;;;;;;;;143733;646;46018;-89
2021/09/08 03:31:28;;;;;;;5.00;1.90;;;;;;;;;;143735;630;46012;-89
2021/09/08 03:34:01;;;;;;;5.90;2.22;;;;;;;;;;143733;665;46020;-87
2021/09/08 03:36:29;;;;;;;8.80;2.85;;;;;;;;;;143732;605;46012;-86
2021/09/08 03:38:55;;;;;;;15.63;3.53;;;;;;;;;;143732;593;46014;-87
2021/09/08 03:41:22;;;;;;;13.73;2.50;;;;;;;;;;143736;609;46022;-87
2021/09/08 03:43:50;;;;;;;11.27;2.62;;;;;;;;;;143733;580;47021;-88
2021/09/08 03:46:18;;;;;;;10.52;3.30;;;;;;;;;;143733;572;46012;-88
2021/09/08 03:48:46;;;;;;;14.02;2.95;;;;;;;;;;143733;686;46019;-89
2021/09/08 03:51:13;;;;;;;12.50;3.40;;;;;;;;;;143735;638;46012;-91
2021/09/08 03:53:40;;;;;;;9.88;2.92;;;;;;;;;;143736;664;46018;-87
2021/09/08 03:56:07;;;;;;;13.45;2.58;;;;;;;;;;143733;570;46012;-89
2021/09/08 03:58:35;;;;;;;11.38;2.87;;;;;;;;;;143735;573;46019;-88
2021/09/08 04:01:02;;;;;;;9.02;2.42;;;;;;;;;;143737;650;46012;-88
2021/09/08 04:03:30;;;;;;;14.63;3.22;;;;;;;;;;143734;583;46020;-89
2021/09/08 04:05:57;;;;;;;9.13;2.90;;;;;;;;;;143735;571;46012;-88
2021/09/08 04:08:24;;;;;;;6.35;2.65;;;;;;;;;;143736;647;46018;-88
2021/09/08 04:10:54;;;;;;;6.43;2.40;;;;;;;;;;143736;626;46012;-89
2021/09/08 04:13:22;;;;;;;12.27;2.95;;;;;;;;;;143733;596;46021;-88
2021/09/08 04:15:49;;;;;;;9.57;2.80;;;;;;;;;;143733;653;46012;-89
2021/09/08 04:18:16;;;;;;;15.90;3.22;;;;;;;;;;143736;571;46018;-88
2021/09/08 04:20:44;;;;;;;12.90;2.53;;;;;;;;;;143737;566;46012;-89
2021/09/08 04:23:10;;;;;;;12.57;2.72;;;;;;;;;;143736;595;46018;-89
2021/09/08 04:25:37;;;;;;;12.93;3.55;;;;;;;;;;143734;572;46013;-87
2021/09/08 04:28:07;;;;;;;14.70;3.30;;;;;;;;;;143736;619;46019;-89
2021/09/08 04:30:35;;;;;;;5.87;2.55;;;;;;;;;;143738;680;46012;-87
2021/09/08 04:33:02;;;;;;;7.70;2.60;;;;;;;;;;143733;667;46037;-88
2021/09/08 04:35:30;;;;;;;7.62;2.58;;;;;;;;;;143734;585;46012;-89
2021/09/08 04:37:56;;;;;;;10.27;2.87;;;;;;;;;;143737;583;46018;-86
2021/09/08 04:40:24;;;;;;;17.98;2.50;;;;;;;;;;143736;616;46013;-89
2021/09/08 04:42:51;;;;;;;14.70;2.22;;;;;;;;;;143734;610;46030;-85
2021/09/08 04:45:18;;;;;;;8.35;2.40;;;;;;;;;;143738;578;46022;-93
2021/09/08 04:47:45;;;;;;;8.65;3.10;;;;;;;;;;143735;620;46018;-92
2021/09/08 04:50:12;;;;;;;16.87;3.15;;;;;;;;;;143736;578;46013;-91
2021/09/08 04:52:40;;;;;;;9.55;3.10;;;;;;;;;;143734;569;46014;-93
2021/09/08 04:55:08;;;;;;;17.90;3.55;;;;;;;;;;143734;577;47012;-91
2021/09/08 04:57:38;;;;;;;13.25;3.12;;;;;;;;;;143736;572;46019;-92
2021/09/08 05:00:06;;;;;;;8.65;2.87;;;;;;;;;;143737;653;46012;-91
2021/09/08 05:02:36;;;;;;;9.13;2.25;;;;;;;;;;143736;629;46020;-92
2021/09/08 05:05:04;;;;;;;10.20;2.60;;;;;;;;;;143736;634;46013;-91
2021/09/08 05:07:32;;;;;;;7.28;3.40;;;;;;;;;;143735;591;46018;-93
2021/09/08 05:09:59;;;;;;;12.43;2.95;;;;;;;;;;143737;642;46012;-93
2021/09/08 05:12:34;;;;;;;20.05;3.60;;;;;;;;;;143739;609;45021;-91
2021/09/08 05:15:34;;;;;;;;;;;;;;;;;;;;;
2021/09/08 05:18:36;;;;;;;17.08;3.05;;;;;;;;;;143739;646;46017;-91
2021/09/08 05:21:39;;;;;;;10.35;2.95;;;;;;;;;;143739;566;45023;-91
2021/09/08 05:24:19;;;;;;;14.73;2.72;;;;;;;;;;143738;646;45020;-93
2021/09/08 05:27:24;;;;;;;;;;;;;;;;;;;;;
2021/09/08 05:30:05;;;;;;;8.30;3.10;;;;;;;;;;143740;581;45018;-92
2021/09/08 05:32:49;;;;;;;7.60;2.70;;;;;;;;;;143741;567;45023;-92
2021/09/08 05:35:46;;;;;;;11.30;2.65;;;;;;;;;;143739;569;45021;-92
2021/09/08 05:38:30;;;;;;;11.18;3.08;;;;;;;;;;143738;608;45919;-91
2021/09/08 05:41:38;;;;;;;13.50;3.08;;;;;;;;;;143740;581;45019;-92
2021/09/08 05:44:39;;;;;;;9.90;2.50;;;;;;;;;;143741;651;45022;-94
2021/09/08 05:47:30;;;;;;;32.35;5.75;;;;;;;;;;143739;570;45022;-93
2021/09/08 05:50:37;;;;;;;7.85;2.80;;;;;;;;;;143739;580;45023;-92
2021/09/08 05:53:45;;;;;;;12.48;2.95;;;;;;;;;;143740;593;45018;-89
2021/09/08 05:56:26;;;;;;;6.20;2.45;;;;;;;;;;143735;581;46015;-92
2021/09/08 05:59:06;;;;;;;9.95;2.50;;;;;;;;;;143733;571;47020;-93
2021/09/08 06:01:40;;;;;;;9.02;2.83;;;;;;;;;;143735;587;46012;-91
2021/09/08 06:04:20;;;;;;;8.68;2.25;;;;;;;;;;143736;591;46019;-90
2021/09/08 06:06:59;;;;;;;9.20;2.75;;;;;;;;;;143736;566;46020;-92
2021/09/08 06:09:27;;;;;;;7.95;2.22;;;;;;;;;;143737;572;46020;-91
2021/09/08 06:12:11;;;;;;;11.20;3.22;;;;;;;;;;143732;573;47012;-91
2021/09/08 06:14:50;;;;;;;10.35;2.87;;;;;;;;;;143734;564;46018;-92
2021/09/08 06:17:23;;;;;;;7.75;2.67;;;;;;;;;;143736;564;46021;-91
2021/09/08 06:20:01;;;;;;;13.02;3.15;;;;;;;;;;143735;584;46021;-92
2021/09/08 06:22:28;;;;;;;8.82;3.03;;;;;;;;;;143735;623;46022;-91
2021/09/08 06:25:00;;;;;;;10.13;3.65;;;;;;;;;;143737;581;46019;-90
2021/09/08 06:27:28;;;;;;;8.98;2.65;;;;;;;;;;143739;612;46023;-92
2021/09/08 06:30:00;;;;;;;4.35;2.65;;;;;;;;;;143737;586;46020;-93
2021/09/08 06:32:34;;;;;;;9.70;2.83;;;;;;;;;;143735;627;46013;-89
2021/09/08 06:42:42;;;;;;;9.25;2.90;;;;;;;;;;143737;567;46022;-91
2021/09/08 06:45:10;;;;;;;20.90;3.25;;;;;;;;;;143738;621;46018;-92
2021/09/08 06:47:39;;;;;;;7.68;2.95;;;;;;;;;;143739;593;46022;-94
2021/09/08 06:50:11;;;;;;;11.02;2.67;;;;;;;;;;143737;571;47021;-93
2021/09/08 06:52:40;;;;;;;8.55;2.47;;;;;;;;;;143736;593;45920;-92
2021/09/08 06:55:17;;;;;;;8.23;2.20;;;;;;;;;;143739;588;45021;-90
2021/09/08 06:57:52;;;;;;;8.45;2.47;;;;;;;;;;143737;589;46014;-90
2021/09/08 07:00:32;;;;;;;8.50;2.58;;;;;;;;;;143734;641;46045;-94
2021/09/08 07:03:03;;;;;;;8.85;3.15;;;;;;;;;;143736;574;46013;-91
2021/09/08 07:05:31;;;;;;;12.60;2.83;;;;;;;;;;143737;571;45018;-91
2021/09/08 07:08:07;;;;;;;9.13;2.75;;;;;;;;;;143736;729;46012;-91
2021/09/08 07:10:41;;;;;;;7.03;2.35;;;;;;;;;;143736;564;47019;-93
2021/09/08 07:13:12;;;;;;;10.02;2.50;;;;;;;;;;143738;687;45921;-92
2021/09/08 07:15:42;;;;;;;5.22;2.58;;;;;;;;;;143739;564;46014;-91
2021/09/08 07:18:19;;;;;;;9.52;2.62;;;;;;;;;;143738;580;46012;-93
2021/09/08 07:20:49;;;;;;;8.52;2.53;;;;;;;;;;143736;636;46020;-92
2021/09/08 07:23:16;;;;;;;11.65;2.47;;;;;;;;;;143736;619;46012;-91
2021/09/08 07:25:44;;;;;;;6.43;2.17;;;;;;;;;;143737;587;46019;-93
2021/09/08 07:28:12;;;;;;;8.05;2.53;;;;;;;;;;143737;581;46012;-92
2021/09/08 07:30:39;;;;;;;6.53;2.53;;;;;;;;;;143733;589;46020;-92
2021/09/08 07:33:06;;;;;;;9.35;2.20;;;;;;;;;;143735;625;46012;-92
2021/09/08 07:35:34;;;;;;;9.90;2.83;;;;;;;;;;143736;575;46018;-90
2021/09/08 07:38:00;;;;;;;4.78;2.35;;;;;;;;;;143737;569;46012;-90
2021/09/08 07:40:28;;;;;;;13.30;2.45;;;;;;;;;;143735;580;46019;-91
2021/09/08 07:42:55;;;;;;;11.27;2.35;;;;;;;;;;143733;564;46012;-90
2021/09/08 07:45:30;;;;;;;9.13;2.35;;;;;;;;;;143737;638;46018;-92
2021/09/08 07:47:58;;;;;;;5.37;2.35;;;;;;;;;;143737;617;46013;-92
2021/09/08 08:03:15;;;;;;;8.52;2.62;;;;;;;;;;143733;573;46013;-68
2021/09/08 08:05:41;;;;;;;11.85;2.35;;;;;;;;;;143737;584;46014;-66
2021/09/08 08:08:08;;;;;;;4.00;1.77;;;;;;;;;;143738;567;46019;-68
2021/09/08 08:10:34;;;;;;;10.10;3.33;;;;;;;;;;143734;609;47021;-68
2021/09/08 08:13:01;;;;;;;8.40;2.67;;;;;;;;;;143733;592;46919;-67
2021/09/08 08:15:27;;;;;;;9.65;2.55;;;;;;;;;;143735;565;46018;-67
2021/09/08 08:17:54;;;;;;;5.53;2.70;;;;;;;;;;143737;589;46020;-67
2021/09/08 08:20:21;;;;;;;11.77;3.00;;;;;;;;;;143736;626;46018;-69
2021/09/08 08:22:48;;;;;;;7.65;2.92;;;;;;;;;;143734;587;46012;-68
2021/09/08 08:25:18;;;;;;;10.10;2.67;;;;;;;;;;143739;593;45037;-67
2021/09/08 08:27:45;;;;;;;11.65;2.70;;;;;;;;;;143734;586;46020;-67
2021/09/08 08:30:14;;;;;;;13.73;2.75;;;;;;;;;;143733;605;47020;-68
2021/09/08 08:32:41;;;;;;;7.95;2.67;;;;;;;;;;143732;644;46012;-67
2021/09/08 08:35:09;;;;;;;11.88;3.15;;;;;;;;;;143738;592;45018;-67
2021/09/08 08:37:36;;;;;;;9.80;4.07;;;;;;;;;;143735;576;47012;-68
2021/09/08 08:40:04;;;;;;;9.48;2.65;;;;;;;;;;143738;649;46016;-65
2021/09/08 08:42:31;;;;;;;5.43;1.83;;;;;;;;;;143737;569;46012;-67
2021/09/08 08:44:59;;;;;;;6.50;2.00;;;;;;;;;;143739;613;45028;-65
2021/09/08 08:47:26;;;;;;;7.55;2.67;;;;;;;;;;143739;581;46014;-66
2021/09/08 08:49:55;;;;;;;4.62;1.85;;;;;;;;;;143734;575;46046;-68
2021/09/08 08:52:22;;;;;;;9.02;2.53;;;;;;;;;;143734;620;46012;-67
2021/09/08 08:54:49;;;;;;;6.37;2.10;;;;;;;;;;143735;599;46019;-67
2021/09/08 08:57:16;;;;;;;6.70;2.92;;;;;;;;;;143736;634;46012;-69
2021/09/08 08:59:44;;;;;;;12.85;3.53;;;;;;;;;;143737;650;46020;-68
2021/09/08 09:02:28;;;;;;;6.40;2.95;;;;;;;;;;143736;576;46013;-67
2021/09/08 09:04:57;;;;;;;6.45;2.40;;;;;;;;;;143735;663;46018;-67
2021/09/08 09:07:29;;;;;;;8.68;2.90;;;;;;;;;;143735;577;46012;-69
2021/09/08 09:10:00;;;;;;;12.40;2.83;;;;;;;;;;143733;589;46021;-69
2021/09/08 09:12:38;;;;;;;5.18;2.95;;;;;;;;;;143732;600;46012;-68
2021/09/08 09:15:10;;;;;;;6.82;2.35;;;;;;;;;;143733;578;46018;-69
2021/09/08 09:17:37;;;;;;;5.07;2.45;;;;;;;;;;143734;671;46013;-69
2021/09/08 09:20:30;;;;;;;9.05;2.60;;;;;;;;;;143733;637;46020;-70
2021/09/08 09:23:02;;;;;;;9.50;3.20;;;;;;;;;;143732;567;46012;-71
2021/09/08 09:25:35;;;;;;;8.05;2.90;;;;;;;;;;143734;664;46019;-74
2021/09/08 09:28:05;;;;;;;10.02;2.65;;;;;;;;;;143735;582;46012;-73
2021/09/08 09:30:38;;;;;;;10.27;3.22;;;;;;;;;;143733;681;46019;-77
2021/09/08 09:33:05;;;;;;;8.63;2.95;;;;;;;;;;143733;581;46012;-77
2021/09/08 09:35:33;;;;;;;7.28;2.50;;;;;;;;;;143734;633;46018;-78
2021/09/08 09:38:02;;;;;;;5.12;2.25;;;;;;;;;;143736;564;46022;-80
2021/09/08 09:40:34;;;;;;;11.43;2.90;;;;;;;;;;143732;570;47021;-79
2021/09/08 09:43:07;;;;;;;6.40;3.37;;;;;;;;;;143733;669;46919;-79
2021/09/08 09:45:34;;;;;;;6.20;3.05;;;;;;;;;;143733;591;46018;-73
2021/09/08 09:48:02;;;;;;;10.10;2.53;;;;;;;;;;143736;569;46012;-76
2021/09/08 09:50:29;;;;;;;7.90;3.35;;;;;;;;;;143733;782;46020;-75
2021/09/08 09:52:56;;;;;;;5.18;1.98;;;;;;;;;;143734;624;46012;-79
2021/09/08 09:55:24;;;;;;;8.82;4.28;;;;;;;;;;143733;566;46019;-81
2021/09/08 09:57:53;;;;;;;7.68;2.92;;;;;;;;;;143734;566;47022;-79
2021/09/08 10:00:19;;;;;;;9.52;2.30;;;;;;;;;;143732;566;46032;-81
2021/09/08 10:02:47;;;;;;;12.50;3.03;;;;;;;;;;143731;569;47013;-77
2021/09/08 10:05:16;;;;;;;4.62;2.25;;;;;;;;;;143734;558;46018;-78
2021/09/08 10:07:43;;;;;;;5.32;2.28;;;;;;;;;;143734;577;46012;-75
2021/09/08 10:10:24;;;;;;;5.53;2.85;;;;;;;;;;143733;674;46020;-80
2021/09/08 10:12:56;;;;;;;7.35;2.62;;;;;;;;;;143735;565;46022;-78
2021/09/08 10:15:24;;;;;;;10.73;3.45;;;;;;;;;;143733;630;46018;-78
2021/09/08 10:17:50;;;;;;;4.90;2.62;;;;;;;;;;143736;595;46012;-79
2021/09/08 10:20:23;;;;;;;9.77;2.85;;;;;;;;;;143732;564;46020;-76
2021/09/08 10:22:51;;;;;;;7.53;2.97;;;;;;;;;;143737;614;46012;-79
2021/09/08 10:25:22;;;;;;;5.75;2.15;;;;;;;;;;143733;654;46019;-74
2021/09/08 10:27:53;;;;;;;8.60;3.10;;;;;;;;;;143735;655;46012;-77
2021/09/08 10:30:24;;;;;;;5.30;2.55;;;;;;;;;;143731;625;47020;-77
2021/09/08 10:32:55;;;;;;;8.27;3.22;;;;;;;;;;143732;570;46012;-76
2021/09/08 10:35:22;;;;;;;7.60;3.28;;;;;;;;;;143735;564;46018;-75
2021/09/08 10:37:51;;;;;;;13.43;2.80;;;;;;;;;;143734;566;46013;-75
2021/09/08 10:40:21;;;;;;;7.25;3.22;;;;;;;;;;143734;642;46021;-75
2021/09/08 10:43:00;;;;;;;7.30;2.83;;;;;;;;;;143732;651;46012;-77
2021/09/08 10:45:33;;;;;;;7.75;2.62;;;;;;;;;;143734;639;47018;-77
2021/09/08 10:48:00;;;;;;;;;;;;;;;;;;143740;970;46012;-74
2021/09/08 10:50:43;;;;;;;8.30;4.20;;;;;;;;;;143738;592;46020;-75
2021/09/08 10:53:41;;;;;;;5.70;2.03;;;;;;;;;;143732;624;46011;-73
2021/09/08 10:56:08;;;;;;;8.45;2.62;;;;;;;;;;143733;571;47018;-73
2021/09/08 10:58:58;;;;;;;5.18;2.37;;;;;;;;;;143734;596;46010;-72
2021/09/08 11:01:26;;;;;;;8.27;2.47;;;;;;;;;;143732;594;46020;-72
2021/09/08 11:03:53;;;;;;;6.75;2.97;;;;;;;;;;143732;612;46010;-74
2021/09/08 11:06:32;;;;;;;9.00;3.53;;;;;;;;;;143735;669;46018;-73
2021/09/08 11:09:09;;;;;;;9.05;3.60;;;;;;;;;;143735;617;46010;-73
2021/09/08 11:11:56;;;;;;;4.68;2.70;;;;;;;;;;143733;667;47020;-72
2021/09/08 11:14:47;;;;;;;9.70;3.72;;;;;;;;;;143732;564;46010;-74
2021/09/08 11:17:24;;;;;;;4.45;3.15;;;;;;;;;;143735;629;46018;-73
2021/09/08 11:19:55;;;;;;;8.02;3.53;;;;;;;;;;143734;586;46010;-73
2021/09/08 11:22:22;;;;;;;7.15;3.80;;;;;;;;;;143732;608;46020;-72
2021/09/08 11:25:11;;;;;;;11.35;4.25;;;;;;;;;;143732;596;46010;-72
2021/09/08 11:27:40;;;;;;;7.65;3.75;;;;;;;;;;143733;577;46018;-68
2021/09/08 11:30:09;;;;;;;9.77;3.83;;;;;;;;;;143734;592;46011;-70
2021/09/08 11:32:58;;;;;;;9.52;5.10;;;;;;;;;;143732;579;46021;-70
2021/09/08 11:35:57;;;;;;;8.32;3.85;;;;;;;;;;143734;649;46010;-71
2021/09/08 11:38:26;;;;;;;13.68;3.20;;;;;;;;;;143733;589;46019;-72
2021/09/08 11:40:57;;;;;;;13.85;4.12;;;;;;;;;;143734;579;46010;-70
2021/09/08 11:43:36;;;;;;;10.27;3.05;;;;;;;;;;143733;574;46018;-71
2021/09/08 11:46:27;;;;;;;6.93;3.53;;;;;;;;;;143733;579;46010;-71
2021/09/08 11:49:04;;;;;;;8.85;2.62;;;;;;;;;;143734;617;46018;-70
2021/09/08 11:51:36;;;;;;;4.87;2.55;;;;;;;;;;143735;598;46010;-70
2021/09/08 11:54:04;;;;;;;4.22;2.83;;;;;;;;;;143731;576;47018;-72
2021/09/08 11:56:32;;;;;;;6.18;2.75;;;;;;;;;;143732;608;46010;-71
2021/09/08 11:59:01;;;;;;;3.75;2.30;;;;;;;;;;143736;591;46018;-71
2021/09/08 12:01:35;;;;;;;7.37;2.95;;;;;;;;;;143734;586;46010;-72
2021/09/08 12:04:04;;;;;;;6.47;2.95;;;;;;;;;;143735;601;46020;-71
2021/09/08 12:06:32;;;;;;;7.40;3.05;;;;;;;;;;143731;593;46010;-71
2021/09/08 12:09:12;;;;;;;6.40;2.72;;;;;;;;;;143734;573;46019;-70
2021/09/08 12:11:41;;;;;;;5.97;3.60;;;;;;;;;;143735;607;46022;-70
2021/09/08 12:14:53;;;;;;;8.63;3.08;;;;;;;;;;143738;612;46020;-70
2021/09/08 12:17:27;;;;;;;4.60;2.72;;;;;;;;;;143733;616;46010;-71
2021/09/08 12:20:11;;;;;;;6.57;2.90;;;;;;;;;;143734;564;46018;-70
2021/09/08 12:22:43;;;;;;;4.57;2.78;;;;;;;;;;143735;585;46011;-69
2021/09/08 12:25:15;;;;;;;6.15;3.40;;;;;;;;;;143732;617;46021;-68
2021/09/08 12:27:44;;;;;;;6.65;3.85;;;;;;;;;;143734;606;46010;-69
2021/09/08 12:30:23;;;;;;;5.93;3.85;;;;;;;;;;143734;586;46019;-67
2021/09/08 12:33:03;;;;;;;10.32;4.07;;;;;;;;;;143735;605;46010;-70
2021/09/08 12:35:43;;;;;;;11.07;4.75;;;;;;;;;;143733;578;46020;-69
2021/09/08 12:38:34;;;;;;;9.18;4.70;;;;;;;;;;143732;606;46010;-69
2021/09/08 12:41:24;;;;;;;7.05;4.15;;;;;;;;;;143735;577;46018;-70
2021/09/08 12:44:09;;;;;;;13.73;4.00;;;;;;;;;;143734;585;46010;-68
2021/09/08 12:46:46;;;;;;;6.93;3.80;;;;;;;;;;143736;651;46018;-67
2021/09/08 12:49:19;;;;;;;6.82;2.90;;;;;;;;;;143733;565;46010;-66
2021/09/08 12:51:46;;;;;;;7.80;3.28;;;;;;;;;;143735;594;46012;-68
2021/09/08 12:54:13;;;;;;;4.57;3.05;;;;;;;;;;143734;633;46010;-68
2021/09/08 12:56:43;;;;;;;5.37;3.15;;;;;;;;;;143732;596;46039;-68
2021/09/08 12:59:09;;;;;;;4.82;3.00;;;;;;;;;;143734;578;46011;-69
2021/09/08 13:01:36;;;;;;;4.55;3.00;;;;;;;;;;143735;612;46019;-68
2021/09/08 13:04:03;;;;;;;4.72;3.05;;;;;;;;;;143735;612;46010;-66
2021/09/08 13:06:30;;;;;;;4.60;3.28;;;;;;;;;;143733;600;46020;-69
2021/09/08 13:08:57;;;;;;;8.73;3.30;;;;;;;;;;143731;618;46010;-69
2021/09/08 13:11:24;;;;;;;5.68;3.40;;;;;;;;;;143735;624;46018;-69
2021/09/08 13:13:51;;;;;;;5.82;3.83;;;;;;;;;;143734;612;46011;-67
2021/09/08 13:16:17;;;;;;;9.70;4.75;;;;;;;;;;143733;600;46046;-68
2021/09/08 13:18:43;;;;;;;5.93;3.65;;;;;;;;;;143733;596;46010;-67
2021/09/08 13:21:10;;;;;;;5.25;3.72;;;;;;;;;;143734;581;46018;-71
2021/09/08 13:23:36;;;;;;;8.18;3.92;;;;;;;;;;143736;569;46010;-68
2021/09/08 13:26:03;;;;;;;5.45;2.40;;;;;;;;;;143736;641;46020;-70
2021/09/08 13:28:29;;;;;;;6.45;1.95;;;;;;;;;;143732;611;46010;-70
2021/09/08 13:30:56;;;;;;;6.82;2.28;;;;;;;;;;143733;584;46026;-68
2021/09/08 13:33:23;;;;;;;7.95;1.92;;;;;;;;;;143735;595;47020;-67
2021/09/08 13:35:49;;;;;;;8.43;2.58;;;;;;;;;;143731;580;47020;-66
2021/09/08 13:38:15;;;;;;;4.75;2.20;;;;;;;;;;143732;582;46010;-69
2021/09/08 13:40:42;;;;;;;3.92;2.40;;;;;;;;;;143736;605;45044;-70
2021/09/08 13:43:09;;;;;;;3.20;2.42;;;;;;;;;;143734;570;46011;-68
2021/09/08 13:45:36;;;;;;;3.92;2.35;;;;;;;;;;143733;655;46021;-66
2021/09/08 13:48:03;;;;;;;6.37;2.87;;;;;;;;;;143734;590;46010;-67
2021/09/08 13:50:29;;;;;;;3.53;2.12;;;;;;;;;;143732;606;46018;-68
2021/09/08 13:52:56;;;;;;;8.05;2.67;;;;;;;;;;143733;583;46011;-69
2021/09/08 13:55:22;;;;;;;4.90;2.85;;;;;;;;;;143731;610;47020;-70
2021/09/08 13:57:49;;;;;;;4.90;2.70;;;;;;;;;;143731;604;46010;-69
2021/09/08 14:00:16;;;;;;;8.10;4.80;;;;;;;;;;143735;569;46019;-69
2021/09/08 14:02:42;;;;;;;9.27;4.50;;;;;;;;;;143735;566;46010;-69
2021/09/08 14:05:10;;;;;;;5.30;3.17;;;;;;;;;;143734;587;46018;-68
2021/09/08 14:07:36;;;;;;;6.20;3.80;;;;;;;;;;143731;587;46011;-69
2021/09/08 14:10:04;;;;;;;5.65;3.58;;;;;;;;;;143735;575;46018;-66
2021/09/08 14:12:31;;;;;;;8.95;3.10;;;;;;;;;;143733;608;46010;-69
2021/09/08 14:14:57;;;;;;;4.70;2.42;;;;;;;;;;143732;580;46048;-67
2021/09/08 14:17:24;;;;;;;5.80;3.58;;;;;;;;;;143734;600;46010;-70
2021/09/08 14:19:50;;;;;;;4.90;3.00;;;;;;;;;;143736;590;45018;-68
2021/09/08 14:22:17;;;;;;;6.50;3.40;;;;;;;;;;143735;580;46011;-69
2021/09/08 14:24:43;;;;;;;9.60;3.75;;;;;;;;;;143733;633;46044;-68
2021/09/08 14:27:10;;;;;;;10.52;2.80;;;;;;;;;;143731;589;46022;-67
2021/09/08 14:29:36;;;;;;;6.97;3.12;;;;;;;;;;143734;580;46019;-68
2021/09/08 14:32:03;;;;;;;8.43;3.37;;;;;;;;;;143733;606;46012;-67
2021/09/08 14:34:30;;;;;;;7.28;3.75;;;;;;;;;;143732;597;46032;-67
2021/09/08 14:36:56;;;;;;;7.22;4.12;;;;;;;;;;143731;606;46010;-69
2021/09/08 14:39:23;;;;;;;6.07;3.47;;;;;;;;;;143732;595;46018;-67
2021/09/08 14:41:50;;;;;;;8.40;3.20;;;;;;;;;;143734;639;46020;-69
2021/09/08 14:44:16;;;;;;;6.53;2.70;;;;;;;;;;143733;593;46020;-69
2021/09/08 14:46:44;;;;;;;5.55;2.87;;;;;;;;;;143734;615;46010;-67
2021/09/08 14:49:11;;;;;;;5.55;3.35;;;;;;;;;;143734;563;46018;-66
2021/09/08 14:51:37;;;;;;;5.75;2.92;;;;;;;;;;143734;576;46011;-68
2021/09/08 14:54:04;;;;;;;6.65;3.33;;;;;;;;;;143732;564;46021;-66
2021/09/08 14:56:30;;;;;;;7.80;3.35;;;;;;;;;;143731;618;46010;-67
2021/09/08 14:58:59;;;;;;;4.97;3.00;;;;;;;;;;143733;578;46019;-65
2021/09/08 15:01:26;;;;;;;7.00;2.70;;;;;;;;;;143734;576;46010;-68
2021/09/08 15:03:52;;;;;;;6.87;3.10;;;;;;;;;;143733;579;47018;-67
2021/09/08 15:06:18;;;;;;;8.38;3.15;;;;;;;;;;143736;566;45023;-67
2021/09/08 15:08:45;;;;;;;4.78;3.45;;;;;;;;;;143735;602;46018;-66
2021/09/08 15:11:11;;;;;;;5.85;3.22;;;;;;;;;;143734;565;46010;-66
2021/09/08 15:13:38;;;;;;;4.50;2.50;;;;;;;;;;143733;587;46047;-67
2021/09/08 15:16:04;;;;;;;4.47;2.70;;;;;;;;;;143733;601;46010;-66
2021/09/08 15:18:31;;;;;;;7.43;3.15;;;;;;;;;;143734;569;46018;-68
2021/09/08 15:20:57;;;;;;;4.57;2.50;;;;;;;;;;143736;598;46021;-66
2021/09/08 15:23:24;;;;;;;5.72;2.95;;;;;;;;;;143733;569;46021;-65